sensor_id;sensor_type;location;lat;lon;timestamp;P1;durP1;ratioP1;P2;durP2;ratioP2
76599;SDS011;65489;52.048;6.090;2023-07-24T00:00:08;1.00;;;0.80;;
76599;SDS011;65489;52.048;6.090;2023-07-24T00:02:34;0.73;;;0.68;;
76599;SDS011;65489;52.048;6.090;2023-07-24T00:05:00;0.85;;;0.60;;
76599;SDS011;65489;52.048;6.090;2023-07-24T00:07:25;0.90;;;0.65;;
76599;SDS011;65489;52.048;6.090;2023-07-24T00:09:51;0.63;;;0.57;;
76599;SDS011;65489;52.048;6.090;2023-07-24T00:12:16;1.02;;;0.70;;
76599;SDS011;65489;52.048;6.090;2023-07-24T00:14:42;0.60;;;0.50;;
76599;SDS011;65489;52.048;6.090;2023-07-24T00:17:07;1.27;;;0.60;;
76599;SDS011;65489;52.048;6.090;2023-07-24T00:19:33;0.80;;;0.50;;
76599;SDS011;65489;52.048;6.090;2023-07-24T00:21:58;0.65;;;0.50;;
76599;SDS011;65489;52.048;6.090;2023-07-24T00:24:24;0.63;;;0.60;;
76599;SDS011;65489;52.048;6.090;2023-07-24T00:26:49;0.80;;;0.60;;
76599;SDS011;65489;52.048;6.090;2023-07-24T00:29:16;1.15;;;0.65;;
76599;SDS011;65489;52.048;6.090;2023-07-24T00:31:42;0.95;;;0.68;;
76599;SDS011;65489;52.048;6.090;2023-07-24T00:34:08;0.60;;;0.50;;
76599;SDS011;65489;52.048;6.090;2023-07-24T00:36:33;0.60;;;0.50;;
76599;SDS011;65489;52.048;6.090;2023-07-24T00:38:59;2.30;;;0.90;;
76599;SDS011;65489;52.048;6.090;2023-07-24T00:41:24;1.17;;;0.70;;
76599;SDS011;65489;52.048;6.090;2023-07-24T00:43:50;0.70;;;0.50;;
76599;SDS011;65489;52.048;6.090;2023-07-24T00:46:15;0.73;;;0.60;;
76599;SDS011;65489;52.048;6.090;2023-07-24T00:48:41;0.70;;;0.50;;
76599;SDS011;65489;52.048;6.090;2023-07-24T00:51:06;0.50;;;0.50;;
76599;SDS011;65489;52.048;6.090;2023-07-24T00:53:33;0.73;;;0.55;;
76599;SDS011;65489;52.048;6.090;2023-07-24T00:55:58;1.48;;;0.60;;
76599;SDS011;65489;52.048;6.090;2023-07-24T00:58:26;0.80;;;0.60;;
76599;SDS011;65489;52.048;6.090;2023-07-24T01:00:51;0.88;;;0.60;;
76599;SDS011;65489;52.048;6.090;2023-07-24T01:03:17;0.50;;;0.47;;
76599;SDS011;65489;52.048;6.090;2023-07-24T01:05:42;0.60;;;0.50;;
76599;SDS011;65489;52.048;6.090;2023-07-24T01:08:08;1.67;;;0.70;;
76599;SDS011;65489;52.048;6.090;2023-07-24T01:10:33;1.02;;;0.57;;
76599;SDS011;65489;52.048;6.090;2023-07-24T01:13:08;0.70;;;0.52;;
76599;SDS011;65489;52.048;6.090;2023-07-24T01:15:50;1.73;;;0.50;;
76599;SDS011;65489;52.048;6.090;2023-07-24T01:18:20;0.70;;;0.60;;
76599;SDS011;65489;52.048;6.090;2023-07-24T01:20:48;0.70;;;0.50;;
76599;SDS011;65489;52.048;6.090;2023-07-24T01:26:03;1.23;;;0.63;;
76599;SDS011;65489;52.048;6.090;2023-07-24T01:28:30;1.02;;;0.55;;
76599;SDS011;65489;52.048;6.090;2023-07-24T01:30:56;0.73;;;0.50;;
76599;SDS011;65489;52.048;6.090;2023-07-24T01:33:22;0.73;;;0.60;;
76599;SDS011;65489;52.048;6.090;2023-07-24T01:35:53;0.93;;;0.60;;
76599;SDS011;65489;52.048;6.090;2023-07-24T01:38:20;1.20;;;0.90;;
76599;SDS011;65489;52.048;6.090;2023-07-24T01:40:46;2.42;;;0.60;;
76599;SDS011;65489;52.048;6.090;2023-07-24T01:43:12;0.80;;;0.70;;
76599;SDS011;65489;52.048;6.090;2023-07-24T01:45:37;0.68;;;0.50;;
76599;SDS011;65489;52.048;6.090;2023-07-24T01:48:03;1.02;;;0.50;;
76599;SDS011;65489;52.048;6.090;2023-07-24T01:50:30;1.92;;;0.80;;
76599;SDS011;65489;52.048;6.090;2023-07-24T01:52:56;0.93;;;0.60;;
76599;SDS011;65489;52.048;6.090;2023-07-24T01:55:21;0.68;;;0.57;;
76599;SDS011;65489;52.048;6.090;2023-07-24T01:57:47;0.70;;;0.57;;
76599;SDS011;65489;52.048;6.090;2023-07-24T02:00:12;0.63;;;0.40;;
76599;SDS011;65489;52.048;6.090;2023-07-24T02:02:38;0.88;;;0.40;;
76599;SDS011;65489;52.048;6.090;2023-07-24T02:05:03;0.65;;;0.57;;
76599;SDS011;65489;52.048;6.090;2023-07-24T02:07:29;0.85;;;0.60;;
76599;SDS011;65489;52.048;6.090;2023-07-24T02:09:55;1.00;;;0.60;;
76599;SDS011;65489;52.048;6.090;2023-07-24T02:12:20;2.53;;;0.60;;
76599;SDS011;65489;52.048;6.090;2023-07-24T02:14:46;0.70;;;0.55;;
76599;SDS011;65489;52.048;6.090;2023-07-24T02:17:18;1.15;;;0.65;;
76599;SDS011;65489;52.048;6.090;2023-07-24T02:19:43;0.75;;;0.60;;
76599;SDS011;65489;52.048;6.090;2023-07-24T02:22:09;0.80;;;0.68;;
76599;SDS011;65489;52.048;6.090;2023-07-24T02:24:35;0.60;;;0.60;;
76599;SDS011;65489;52.048;6.090;2023-07-24T02:27:00;0.70;;;0.60;;
76599;SDS011;65489;52.048;6.090;2023-07-24T02:29:26;0.73;;;0.70;;
76599;SDS011;65489;52.048;6.090;2023-07-24T02:31:52;0.73;;;0.60;;
76599;SDS011;65489;52.048;6.090;2023-07-24T02:34:18;2.20;;;0.55;;
76599;SDS011;65489;52.048;6.090;2023-07-24T02:36:44;0.60;;;0.60;;
76599;SDS011;65489;52.048;6.090;2023-07-24T02:39:09;0.73;;;0.70;;
76599;SDS011;65489;52.048;6.090;2023-07-24T02:41:35;0.77;;;0.73;;
76599;SDS011;65489;52.048;6.090;2023-07-24T02:44:01;1.30;;;0.95;;
76599;SDS011;65489;52.048;6.090;2023-07-24T02:46:27;1.00;;;0.70;;
76599;SDS011;65489;52.048;6.090;2023-07-24T02:48:54;0.80;;;0.52;;
76599;SDS011;65489;52.048;6.090;2023-07-24T02:51:19;0.80;;;0.73;;
76599;SDS011;65489;52.048;6.090;2023-07-24T02:53:45;0.63;;;0.60;;
76599;SDS011;65489;52.048;6.090;2023-07-24T02:56:11;0.70;;;0.60;;
76599;SDS011;65489;52.048;6.090;2023-07-24T02:58:36;1.08;;;0.60;;
76599;SDS011;65489;52.048;6.090;2023-07-24T03:01:02;1.88;;;0.60;;
76599;SDS011;65489;52.048;6.090;2023-07-24T03:03:32;2.13;;;0.68;;
76599;SDS011;65489;52.048;6.090;2023-07-24T03:05:58;0.60;;;0.60;;
76599;SDS011;65489;52.048;6.090;2023-07-24T03:08:23;1.10;;;0.65;;
76599;SDS011;65489;52.048;6.090;2023-07-24T03:10:49;0.70;;;0.60;;
76599;SDS011;65489;52.048;6.090;2023-07-24T03:13:14;0.88;;;0.70;;
76599;SDS011;65489;52.048;6.090;2023-07-24T03:15:40;0.80;;;0.70;;
76599;SDS011;65489;52.048;6.090;2023-07-24T03:18:05;0.85;;;0.60;;
76599;SDS011;65489;52.048;6.090;2023-07-24T03:20:31;1.10;;;0.80;;
76599;SDS011;65489;52.048;6.090;2023-07-24T03:22:56;0.90;;;0.73;;
76599;SDS011;65489;52.048;6.090;2023-07-24T03:25:22;1.00;;;0.77;;
76599;SDS011;65489;52.048;6.090;2023-07-24T03:27:47;1.00;;;0.60;;
76599;SDS011;65489;52.048;6.090;2023-07-24T03:30:13;1.10;;;0.70;;
76599;SDS011;65489;52.048;6.090;2023-07-24T03:32:38;0.80;;;0.70;;
76599;SDS011;65489;52.048;6.090;2023-07-24T03:35:07;1.42;;;0.70;;
76599;SDS011;65489;52.048;6.090;2023-07-24T03:37:34;0.70;;;0.60;;
76599;SDS011;65489;52.048;6.090;2023-07-24T03:39:59;1.65;;;0.77;;
76599;SDS011;65489;52.048;6.090;2023-07-24T03:42:27;0.80;;;0.70;;
76599;SDS011;65489;52.048;6.090;2023-07-24T03:44:54;0.77;;;0.63;;
76599;SDS011;65489;52.048;6.090;2023-07-24T03:47:20;1.15;;;0.77;;
76599;SDS011;65489;52.048;6.090;2023-07-24T03:49:45;1.48;;;0.85;;
76599;SDS011;65489;52.048;6.090;2023-07-24T03:52:10;0.80;;;0.70;;
76599;SDS011;65489;52.048;6.090;2023-07-24T03:54:36;0.85;;;0.70;;
76599;SDS011;65489;52.048;6.090;2023-07-24T03:57:01;0.93;;;0.80;;
76599;SDS011;65489;52.048;6.090;2023-07-24T03:59:27;1.85;;;0.73;;
76599;SDS011;65489;52.048;6.090;2023-07-24T04:01:52;1.20;;;0.75;;
76599;SDS011;65489;52.048;6.090;2023-07-24T04:04:18;0.82;;;0.80;;
76599;SDS011;65489;52.048;6.090;2023-07-24T04:06:43;1.55;;;0.93;;
76599;SDS011;65489;52.048;6.090;2023-07-24T04:09:10;0.93;;;0.85;;
76599;SDS011;65489;52.048;6.090;2023-07-24T04:11:39;0.80;;;0.70;;
76599;SDS011;65489;52.048;6.090;2023-07-24T04:14:05;1.13;;;0.93;;
76599;SDS011;65489;52.048;6.090;2023-07-24T04:16:30;1.15;;;0.85;;
76599;SDS011;65489;52.048;6.090;2023-07-24T04:18:56;1.20;;;0.90;;
76599;SDS011;65489;52.048;6.090;2023-07-24T04:21:22;1.17;;;0.90;;
76599;SDS011;65489;52.048;6.090;2023-07-24T04:23:47;0.90;;;0.80;;
76599;SDS011;65489;52.048;6.090;2023-07-24T04:26:13;1.92;;;1.00;;
76599;SDS011;65489;52.048;6.090;2023-07-24T04:28:38;1.27;;;1.02;;
76599;SDS011;65489;52.048;6.090;2023-07-24T04:31:04;2.08;;;1.00;;
76599;SDS011;65489;52.048;6.090;2023-07-24T04:33:29;1.50;;;1.10;;
76599;SDS011;65489;52.048;6.090;2023-07-24T04:35:55;1.20;;;1.00;;
76599;SDS011;65489;52.048;6.090;2023-07-24T04:38:21;1.20;;;1.10;;
76599;SDS011;65489;52.048;6.090;2023-07-24T04:40:46;1.10;;;1.00;;
76599;SDS011;65489;52.048;6.090;2023-07-24T04:43:12;1.08;;;0.98;;
76599;SDS011;65489;52.048;6.090;2023-07-24T04:45:37;1.40;;;0.95;;
76599;SDS011;65489;52.048;6.090;2023-07-24T04:48:03;1.20;;;1.10;;
76599;SDS011;65489;52.048;6.090;2023-07-24T04:50:29;1.48;;;0.90;;
76599;SDS011;65489;52.048;6.090;2023-07-24T04:52:54;0.90;;;0.80;;
76599;SDS011;65489;52.048;6.090;2023-07-24T04:55:20;1.10;;;0.98;;
76599;SDS011;65489;52.048;6.090;2023-07-24T04:57:46;1.50;;;1.10;;
76599;SDS011;65489;52.048;6.090;2023-07-24T05:00:12;1.23;;;1.08;;
76599;SDS011;65489;52.048;6.090;2023-07-24T05:02:38;1.20;;;0.90;;
76599;SDS011;65489;52.048;6.090;2023-07-24T05:05:03;1.33;;;0.90;;
76599;SDS011;65489;52.048;6.090;2023-07-24T05:07:29;1.05;;;0.85;;
76599;SDS011;65489;52.048;6.090;2023-07-24T05:09:54;1.20;;;0.95;;
76599;SDS011;65489;52.048;6.090;2023-07-24T05:12:20;1.10;;;1.00;;
76599;SDS011;65489;52.048;6.090;2023-07-24T05:14:45;1.20;;;1.10;;
76599;SDS011;65489;52.048;6.090;2023-07-24T05:17:11;1.42;;;1.00;;
76599;SDS011;65489;52.048;6.090;2023-07-24T05:19:37;1.25;;;1.10;;
76599;SDS011;65489;52.048;6.090;2023-07-24T05:22:02;2.10;;;1.10;;
76599;SDS011;65489;52.048;6.090;2023-07-24T05:24:28;1.17;;;1.08;;
76599;SDS011;65489;52.048;6.090;2023-07-24T05:26:53;1.88;;;1.20;;
76599;SDS011;65489;52.048;6.090;2023-07-24T05:29:19;1.70;;;1.10;;
76599;SDS011;65489;52.048;6.090;2023-07-24T05:31:44;1.73;;;0.90;;
76599;SDS011;65489;52.048;6.090;2023-07-24T05:34:10;1.15;;;1.00;;
76599;SDS011;65489;52.048;6.090;2023-07-24T05:36:35;1.40;;;1.20;;
76599;SDS011;65489;52.048;6.090;2023-07-24T05:39:01;1.40;;;1.30;;
76599;SDS011;65489;52.048;6.090;2023-07-24T05:41:26;1.13;;;1.00;;
76599;SDS011;65489;52.048;6.090;2023-07-24T05:43:51;1.17;;;1.08;;
76599;SDS011;65489;52.048;6.090;2023-07-24T05:46:17;1.27;;;1.00;;
76599;SDS011;65489;52.048;6.090;2023-07-24T05:48:42;1.65;;;1.13;;
76599;SDS011;65489;52.048;6.090;2023-07-24T05:51:08;1.30;;;1.02;;
76599;SDS011;65489;52.048;6.090;2023-07-24T05:53:33;1.02;;;0.93;;
76599;SDS011;65489;52.048;6.090;2023-07-24T05:55:59;2.53;;;1.08;;
76599;SDS011;65489;52.048;6.090;2023-07-24T05:58:25;1.25;;;1.05;;
76599;SDS011;65489;52.048;6.090;2023-07-24T06:00:51;1.00;;;0.90;;
76599;SDS011;65489;52.048;6.090;2023-07-24T06:03:17;1.10;;;1.00;;
76599;SDS011;65489;52.048;6.090;2023-07-24T06:05:42;1.55;;;1.08;;
76599;SDS011;65489;52.048;6.090;2023-07-24T06:08:08;1.20;;;0.98;;
76599;SDS011;65489;52.048;6.090;2023-07-24T06:10:37;1.00;;;0.90;;
76599;SDS011;65489;52.048;6.090;2023-07-24T06:13:02;1.42;;;1.33;;
76599;SDS011;65489;52.048;6.090;2023-07-24T06:15:28;1.50;;;1.30;;
76599;SDS011;65489;52.048;6.090;2023-07-24T06:17:53;1.50;;;1.15;;
76599;SDS011;65489;52.048;6.090;2023-07-24T06:20:18;1.23;;;1.10;;
76599;SDS011;65489;52.048;6.090;2023-07-24T06:22:44;1.40;;;1.05;;
76599;SDS011;65489;52.048;6.090;2023-07-24T06:25:10;2.63;;;1.20;;
76599;SDS011;65489;52.048;6.090;2023-07-24T06:27:35;1.23;;;1.13;;
76599;SDS011;65489;52.048;6.090;2023-07-24T06:30:01;1.27;;;1.05;;
76599;SDS011;65489;52.048;6.090;2023-07-24T06:32:26;1.35;;;1.17;;
76599;SDS011;65489;52.048;6.090;2023-07-24T06:34:52;1.58;;;1.40;;
76599;SDS011;65489;52.048;6.090;2023-07-24T06:37:17;1.20;;;1.10;;
76599;SDS011;65489;52.048;6.090;2023-07-24T06:39:43;2.33;;;1.30;;
76599;SDS011;65489;52.048;6.090;2023-07-24T06:42:08;1.40;;;1.30;;
76599;SDS011;65489;52.048;6.090;2023-07-24T06:44:34;1.33;;;1.20;;
76599;SDS011;65489;52.048;6.090;2023-07-24T06:46:59;1.55;;;1.08;;
76599;SDS011;65489;52.048;6.090;2023-07-24T06:49:25;1.88;;;1.40;;
76599;SDS011;65489;52.048;6.090;2023-07-24T06:51:50;1.25;;;1.15;;
76599;SDS011;65489;52.048;6.090;2023-07-24T06:54:15;1.50;;;1.17;;
76599;SDS011;65489;52.048;6.090;2023-07-24T06:56:41;1.48;;;1.33;;
76599;SDS011;65489;52.048;6.090;2023-07-24T06:59:06;2.40;;;1.20;;
76599;SDS011;65489;52.048;6.090;2023-07-24T07:01:32;3.50;;;1.40;;
76599;SDS011;65489;52.048;6.090;2023-07-24T07:03:58;1.67;;;1.17;;
76599;SDS011;65489;52.048;6.090;2023-07-24T07:06:23;2.72;;;1.45;;
76599;SDS011;65489;52.048;6.090;2023-07-24T07:08:49;1.63;;;1.30;;
76599;SDS011;65489;52.048;6.090;2023-07-24T07:11:14;1.98;;;1.42;;
76599;SDS011;65489;52.048;6.090;2023-07-24T07:13:40;2.33;;;1.20;;
76599;SDS011;65489;52.048;6.090;2023-07-24T07:16:05;6.43;;;1.77;;
76599;SDS011;65489;52.048;6.090;2023-07-24T07:18:31;6.75;;;1.70;;
76599;SDS011;65489;52.048;6.090;2023-07-24T07:20:56;2.47;;;1.50;;
76599;SDS011;65489;52.048;6.090;2023-07-24T07:23:21;2.05;;;1.30;;
76599;SDS011;65489;52.048;6.090;2023-07-24T07:25:47;2.05;;;1.55;;
76599;SDS011;65489;52.048;6.090;2023-07-24T07:28:14;3.13;;;1.60;;
76599;SDS011;65489;52.048;6.090;2023-07-24T07:30:41;2.00;;;1.65;;
76599;SDS011;65489;52.048;6.090;2023-07-24T07:33:07;2.53;;;1.58;;
76599;SDS011;65489;52.048;6.090;2023-07-24T07:35:32;3.03;;;1.75;;
76599;SDS011;65489;52.048;6.090;2023-07-24T07:37:58;2.88;;;1.50;;
76599;SDS011;65489;52.048;6.090;2023-07-24T07:40:24;3.50;;;1.67;;
76599;SDS011;65489;52.048;6.090;2023-07-24T07:42:52;2.75;;;1.45;;
76599;SDS011;65489;52.048;6.090;2023-07-24T07:45:18;1.73;;;1.60;;
76599;SDS011;65489;52.048;6.090;2023-07-24T07:47:43;2.70;;;1.67;;
76599;SDS011;65489;52.048;6.090;2023-07-24T07:50:09;3.25;;;1.63;;
76599;SDS011;65489;52.048;6.090;2023-07-24T07:52:34;3.90;;;1.55;;
76599;SDS011;65489;52.048;6.090;2023-07-24T07:55:00;2.17;;;1.58;;
76599;SDS011;65489;52.048;6.090;2023-07-24T07:57:25;1.85;;;1.52;;
76599;SDS011;65489;52.048;6.090;2023-07-24T07:59:51;1.63;;;1.40;;
76599;SDS011;65489;52.048;6.090;2023-07-24T08:02:16;2.35;;;1.60;;
76599;SDS011;65489;52.048;6.090;2023-07-24T08:04:51;2.83;;;1.63;;
76599;SDS011;65489;52.048;6.090;2023-07-24T08:07:17;2.80;;;1.60;;
76599;SDS011;65489;52.048;6.090;2023-07-24T08:09:42;2.30;;;1.58;;
76599;SDS011;65489;52.048;6.090;2023-07-24T08:12:08;3.15;;;1.80;;
76599;SDS011;65489;52.048;6.090;2023-07-24T08:14:33;1.73;;;1.35;;
76599;SDS011;65489;52.048;6.090;2023-07-24T08:16:59;4.43;;;1.80;;
76599;SDS011;65489;52.048;6.090;2023-07-24T08:19:27;2.33;;;1.77;;
76599;SDS011;65489;52.048;6.090;2023-07-24T08:21:53;2.78;;;1.80;;
76599;SDS011;65489;52.048;6.090;2023-07-24T08:24:19;2.03;;;1.80;;
76599;SDS011;65489;52.048;6.090;2023-07-24T08:26:44;2.60;;;1.63;;
76599;SDS011;65489;52.048;6.090;2023-07-24T08:29:10;2.85;;;1.77;;
76599;SDS011;65489;52.048;6.090;2023-07-24T08:31:35;3.17;;;1.88;;
76599;SDS011;65489;52.048;6.090;2023-07-24T08:34:01;4.00;;;1.95;;
76599;SDS011;65489;52.048;6.090;2023-07-24T08:36:26;3.75;;;1.90;;
76599;SDS011;65489;52.048;6.090;2023-07-24T08:38:52;2.65;;;1.70;;
76599;SDS011;65489;52.048;6.090;2023-07-24T08:41:17;2.40;;;1.80;;
76599;SDS011;65489;52.048;6.090;2023-07-24T08:43:43;3.20;;;1.70;;
76599;SDS011;65489;52.048;6.090;2023-07-24T08:46:09;2.63;;;1.80;;
76599;SDS011;65489;52.048;6.090;2023-07-24T08:48:35;2.70;;;1.88;;
76599;SDS011;65489;52.048;6.090;2023-07-24T08:51:02;2.15;;;1.75;;
76599;SDS011;65489;52.048;6.090;2023-07-24T08:53:32;2.58;;;2.00;;
76599;SDS011;65489;52.048;6.090;2023-07-24T08:56:05;2.50;;;1.98;;
76599;SDS011;65489;52.048;6.090;2023-07-24T08:58:31;2.45;;;1.95;;
76599;SDS011;65489;52.048;6.090;2023-07-24T09:00:57;5.03;;;2.42;;
76599;SDS011;65489;52.048;6.090;2023-07-24T09:03:23;4.32;;;2.10;;
76599;SDS011;65489;52.048;6.090;2023-07-24T09:05:49;5.40;;;2.03;;
76599;SDS011;65489;52.048;6.090;2023-07-24T09:08:14;2.85;;;2.22;;
76599;SDS011;65489;52.048;6.090;2023-07-24T09:10:40;4.03;;;1.90;;
76599;SDS011;65489;52.048;6.090;2023-07-24T09:13:05;4.28;;;2.05;;
76599;SDS011;65489;52.048;6.090;2023-07-24T09:15:41;2.97;;;2.30;;
76599;SDS011;65489;52.048;6.090;2023-07-24T09:18:07;3.33;;;2.10;;
76599;SDS011;65489;52.048;6.090;2023-07-24T09:20:40;2.70;;;2.00;;
76599;SDS011;65489;52.048;6.090;2023-07-24T09:23:07;2.65;;;2.10;;
76599;SDS011;65489;52.048;6.090;2023-07-24T09:25:34;3.22;;;2.10;;
76599;SDS011;65489;52.048;6.090;2023-07-24T09:28:00;5.40;;;2.22;;
76599;SDS011;65489;52.048;6.090;2023-07-24T09:30:26;2.15;;;1.88;;
76599;SDS011;65489;52.048;6.090;2023-07-24T09:32:52;3.28;;;2.45;;
76599;SDS011;65489;52.048;6.090;2023-07-24T09:35:18;2.47;;;1.85;;
76599;SDS011;65489;52.048;6.090;2023-07-24T09:37:45;3.85;;;2.22;;
76599;SDS011;65489;52.048;6.090;2023-07-24T09:40:12;4.35;;;2.42;;
76599;SDS011;65489;52.048;6.090;2023-07-24T09:42:39;2.88;;;2.08;;
76599;SDS011;65489;52.048;6.090;2023-07-24T09:45:05;3.97;;;2.45;;
76599;SDS011;65489;52.048;6.090;2023-07-24T09:47:33;3.55;;;2.20;;
76599;SDS011;65489;52.048;6.090;2023-07-24T09:49:59;2.72;;;2.05;;
76599;SDS011;65489;52.048;6.090;2023-07-24T09:52:29;2.80;;;2.10;;
76599;SDS011;65489;52.048;6.090;2023-07-24T09:54:55;2.53;;;2.05;;
76599;SDS011;65489;52.048;6.090;2023-07-24T09:57:26;4.07;;;2.28;;
76599;SDS011;65489;52.048;6.090;2023-07-24T09:59:53;4.93;;;2.47;;
76599;SDS011;65489;52.048;6.090;2023-07-24T10:02:19;3.25;;;2.40;;
76599;SDS011;65489;52.048;6.090;2023-07-24T10:04:45;5.13;;;2.58;;
76599;SDS011;65489;52.048;6.090;2023-07-24T10:07:11;2.47;;;2.20;;
76599;SDS011;65489;52.048;6.090;2023-07-24T10:09:38;2.65;;;2.13;;
76599;SDS011;65489;52.048;6.090;2023-07-24T10:12:04;2.78;;;2.22;;
76599;SDS011;65489;52.048;6.090;2023-07-24T10:14:30;3.67;;;2.40;;
76599;SDS011;65489;52.048;6.090;2023-07-24T10:16:56;3.03;;;2.10;;
76599;SDS011;65489;52.048;6.090;2023-07-24T10:19:22;5.07;;;2.65;;
76599;SDS011;65489;52.048;6.090;2023-07-24T10:21:48;4.18;;;2.28;;
76599;SDS011;65489;52.048;6.090;2023-07-24T10:24:17;5.05;;;2.60;;
76599;SDS011;65489;52.048;6.090;2023-07-24T10:29:11;2.60;;;2.08;;
76599;SDS011;65489;52.048;6.090;2023-07-24T10:31:38;5.43;;;2.30;;
76599;SDS011;65489;52.048;6.090;2023-07-24T10:34:07;4.70;;;2.40;;
76599;SDS011;65489;52.048;6.090;2023-07-24T10:36:33;4.22;;;2.50;;
76599;SDS011;65489;52.048;6.090;2023-07-24T10:39:00;2.63;;;2.42;;
76599;SDS011;65489;52.048;6.090;2023-07-24T10:41:36;2.70;;;2.38;;
76599;SDS011;65489;52.048;6.090;2023-07-24T10:44:02;3.30;;;2.38;;
76599;SDS011;65489;52.048;6.090;2023-07-24T10:46:35;3.50;;;2.20;;
76599;SDS011;65489;52.048;6.090;2023-07-24T10:49:02;3.00;;;2.30;;
76599;SDS011;65489;52.048;6.090;2023-07-24T10:51:28;3.20;;;2.20;;
76599;SDS011;65489;52.048;6.090;2023-07-24T10:53:54;4.05;;;2.38;;
76599;SDS011;65489;52.048;6.090;2023-07-24T10:56:20;4.28;;;2.35;;
76599;SDS011;65489;52.048;6.090;2023-07-24T10:58:45;2.75;;;2.22;;
76599;SDS011;65489;52.048;6.090;2023-07-24T11:01:11;3.72;;;2.15;;
76599;SDS011;65489;52.048;6.090;2023-07-24T11:03:36;2.85;;;2.28;;
76599;SDS011;65489;52.048;6.090;2023-07-24T11:06:03;6.00;;;2.20;;
76599;SDS011;65489;52.048;6.090;2023-07-24T11:08:28;4.80;;;2.22;;
76599;SDS011;65489;52.048;6.090;2023-07-24T11:10:55;2.53;;;2.28;;
76599;SDS011;65489;52.048;6.090;2023-07-24T11:13:23;3.08;;;2.45;;
76599;SDS011;65489;52.048;6.090;2023-07-24T11:15:49;3.15;;;2.30;;
76599;SDS011;65489;52.048;6.090;2023-07-24T11:18:16;2.78;;;2.20;;
76599;SDS011;65489;52.048;6.090;2023-07-24T11:20:49;3.20;;;2.17;;
76599;SDS011;65489;52.048;6.090;2023-07-24T11:23:16;3.97;;;2.30;;
76599;SDS011;65489;52.048;6.090;2023-07-24T11:25:42;2.70;;;2.30;;
76599;SDS011;65489;52.048;6.090;2023-07-24T11:28:09;3.15;;;2.22;;
76599;SDS011;65489;52.048;6.090;2023-07-24T11:30:36;3.20;;;2.40;;
76599;SDS011;65489;52.048;6.090;2023-07-24T11:33:02;3.17;;;2.33;;
76599;SDS011;65489;52.048;6.090;2023-07-24T11:35:29;3.40;;;2.25;;
76599;SDS011;65489;52.048;6.090;2023-07-24T11:37:54;5.47;;;2.28;;
76599;SDS011;65489;52.048;6.090;2023-07-24T11:40:20;3.70;;;2.22;;
76599;SDS011;65489;52.048;6.090;2023-07-24T11:42:46;3.03;;;2.20;;
76599;SDS011;65489;52.048;6.090;2023-07-24T11:45:12;3.33;;;2.15;;
76599;SDS011;65489;52.048;6.090;2023-07-24T11:50:10;2.55;;;2.20;;
76599;SDS011;65489;52.048;6.090;2023-07-24T11:52:46;2.70;;;2.13;;
76599;SDS011;65489;52.048;6.090;2023-07-24T11:55:17;2.55;;;1.90;;
76599;SDS011;65489;52.048;6.090;2023-07-24T11:57:43;2.95;;;2.05;;
76599;SDS011;65489;52.048;6.090;2023-07-24T12:00:19;2.55;;;2.20;;
76599;SDS011;65489;52.048;6.090;2023-07-24T12:02:46;2.47;;;2.10;;
76599;SDS011;65489;52.048;6.090;2023-07-24T12:05:11;3.20;;;2.20;;
76599;SDS011;65489;52.048;6.090;2023-07-24T12:07:37;2.50;;;1.88;;
76599;SDS011;65489;52.048;6.090;2023-07-24T12:10:03;2.78;;;1.90;;
76599;SDS011;65489;52.048;6.090;2023-07-24T12:12:37;2.20;;;1.90;;
76599;SDS011;65489;52.048;6.090;2023-07-24T12:15:03;3.17;;;2.17;;
76599;SDS011;65489;52.048;6.090;2023-07-24T12:17:29;2.55;;;2.30;;
76599;SDS011;65489;52.048;6.090;2023-07-24T12:19:55;3.08;;;2.58;;
76599;SDS011;65489;52.048;6.090;2023-07-24T12:22:20;2.65;;;2.03;;
76599;SDS011;65489;52.048;6.090;2023-07-24T12:24:47;2.33;;;2.08;;
76599;SDS011;65489;52.048;6.090;2023-07-24T12:27:12;2.67;;;1.90;;
76599;SDS011;65489;52.048;6.090;2023-07-24T12:29:38;2.25;;;1.92;;
76599;SDS011;65489;52.048;6.090;2023-07-24T12:32:03;2.50;;;2.20;;
76599;SDS011;65489;52.048;6.090;2023-07-24T12:34:29;2.10;;;1.90;;
76599;SDS011;65489;52.048;6.090;2023-07-24T12:36:55;2.45;;;2.13;;
76599;SDS011;65489;52.048;6.090;2023-07-24T12:39:20;2.10;;;1.83;;
76599;SDS011;65489;52.048;6.090;2023-07-24T12:41:45;2.33;;;2.13;;
76599;SDS011;65489;52.048;6.090;2023-07-24T12:44:11;2.55;;;2.10;;
76599;SDS011;65489;52.048;6.090;2023-07-24T12:46:36;2.17;;;1.98;;
76599;SDS011;65489;52.048;6.090;2023-07-24T12:49:02;2.95;;;2.22;;
76599;SDS011;65489;52.048;6.090;2023-07-24T12:51:27;3.22;;;1.88;;
76599;SDS011;65489;52.048;6.090;2023-07-24T12:53:53;2.60;;;1.88;;
76599;SDS011;65489;52.048;6.090;2023-07-24T12:56:18;2.40;;;1.92;;
76599;SDS011;65489;52.048;6.090;2023-07-24T12:58:44;2.75;;;1.98;;
76599;SDS011;65489;52.048;6.090;2023-07-24T13:01:09;2.97;;;2.30;;
76599;SDS011;65489;52.048;6.090;2023-07-24T13:03:35;3.00;;;2.08;;
76599;SDS011;65489;52.048;6.090;2023-07-24T13:06:00;3.22;;;2.00;;
76599;SDS011;65489;52.048;6.090;2023-07-24T13:08:25;2.28;;;1.95;;
76599;SDS011;65489;52.048;6.090;2023-07-24T13:10:51;3.30;;;2.10;;
76599;SDS011;65489;52.048;6.090;2023-07-24T13:13:17;2.08;;;1.88;;
76599;SDS011;65489;52.048;6.090;2023-07-24T13:15:42;3.92;;;2.00;;
76599;SDS011;65489;52.048;6.090;2023-07-24T13:18:08;2.10;;;1.90;;
76599;SDS011;65489;52.048;6.090;2023-07-24T13:20:33;3.67;;;2.15;;
76599;SDS011;65489;52.048;6.090;2023-07-24T13:22:59;2.70;;;2.08;;
76599;SDS011;65489;52.048;6.090;2023-07-24T13:25:24;2.10;;;1.90;;
76599;SDS011;65489;52.048;6.090;2023-07-24T13:27:49;2.78;;;1.75;;
76599;SDS011;65489;52.048;6.090;2023-07-24T13:30:15;2.38;;;1.70;;
76599;SDS011;65489;52.048;6.090;2023-07-24T13:32:41;2.00;;;1.80;;
76599;SDS011;65489;52.048;6.090;2023-07-24T13:35:07;4.07;;;1.80;;
76599;SDS011;65489;52.048;6.090;2023-07-24T13:37:32;3.50;;;2.20;;
76599;SDS011;65489;52.048;6.090;2023-07-24T13:39:58;3.05;;;1.63;;
76599;SDS011;65489;52.048;6.090;2023-07-24T13:42:23;2.47;;;1.67;;
76599;SDS011;65489;52.048;6.090;2023-07-24T13:44:48;1.83;;;1.63;;
76599;SDS011;65489;52.048;6.090;2023-07-24T13:47:14;2.67;;;1.70;;
76599;SDS011;65489;52.048;6.090;2023-07-24T13:49:39;2.05;;;1.85;;
76599;SDS011;65489;52.048;6.090;2023-07-24T13:52:05;1.85;;;1.60;;
76599;SDS011;65489;52.048;6.090;2023-07-24T13:54:31;3.65;;;1.60;;
76599;SDS011;65489;52.048;6.090;2023-07-24T13:56:56;2.35;;;1.95;;
76599;SDS011;65489;52.048;6.090;2023-07-24T13:59:22;3.13;;;1.67;;
76599;SDS011;65489;52.048;6.090;2023-07-24T14:01:47;3.67;;;2.00;;
76599;SDS011;65489;52.048;6.090;2023-07-24T14:04:13;2.40;;;1.77;;
76599;SDS011;65489;52.048;6.090;2023-07-24T14:06:39;2.15;;;1.95;;
76599;SDS011;65489;52.048;6.090;2023-07-24T14:09:04;3.35;;;1.60;;
76599;SDS011;65489;52.048;6.090;2023-07-24T14:11:30;1.90;;;1.60;;
76599;SDS011;65489;52.048;6.090;2023-07-24T14:13:55;2.33;;;1.60;;
76599;SDS011;65489;52.048;6.090;2023-07-24T14:16:21;1.42;;;1.33;;
76599;SDS011;65489;52.048;6.090;2023-07-24T14:18:46;1.77;;;1.63;;
76599;SDS011;65489;52.048;6.090;2023-07-24T14:21:12;1.80;;;1.60;;
76599;SDS011;65489;52.048;6.090;2023-07-24T14:23:37;2.03;;;1.50;;
76599;SDS011;65489;52.048;6.090;2023-07-24T14:26:03;2.58;;;1.70;;
76599;SDS011;65489;52.048;6.090;2023-07-24T14:28:28;1.92;;;1.42;;
76599;SDS011;65489;52.048;6.090;2023-07-24T14:30:53;1.92;;;1.63;;
76599;SDS011;65489;52.048;6.090;2023-07-24T14:33:19;2.53;;;1.60;;
76599;SDS011;65489;52.048;6.090;2023-07-24T14:35:44;1.75;;;1.60;;
76599;SDS011;65489;52.048;6.090;2023-07-24T14:38:10;3.42;;;1.92;;
76599;SDS011;65489;52.048;6.090;2023-07-24T14:40:35;1.80;;;1.55;;
76599;SDS011;65489;52.048;6.090;2023-07-24T14:43:01;1.58;;;1.42;;
76599;SDS011;65489;52.048;6.090;2023-07-24T14:45:26;2.40;;;1.88;;
76599;SDS011;65489;52.048;6.090;2023-07-24T14:47:52;2.72;;;1.80;;
